createdAt,value
2019-03-12T00:00:23.013Z,96131.91
2019-03-12T00:01:26.502Z,96144.59
2019-03-12T00:02:29.915Z,96146.80
2019-03-12T00:03:33.414Z,96132.67
2019-03-12T00:04:36.881Z,96138.18
2019-03-12T00:05:40.315Z,96134.98
2019-03-12T00:06:43.739Z,96143.67
2019-03-12T00:07:47.171Z,96146.19
2019-03-12T00:08:50.636Z,96154.19
2019-03-12T00:09:54.082Z,96138.03
2019-03-12T00:10:57.550Z,96149.02
2019-03-12T00:12:00.974Z,96136.89
2019-03-12T00:13:04.469Z,96147.80
2019-03-12T00:14:07.893Z,96144.87
2019-03-12T00:15:12.077Z,96146.28
2019-03-12T00:16:15.498Z,96144.81
2019-03-12T00:17:18.924Z,96147.66
2019-03-12T00:18:22.419Z,96149.33
2019-03-12T00:19:25.849Z,96152.83
2019-03-12T00:20:29.301Z,96155.58
2019-03-12T00:21:32.736Z,96153.61
2019-03-12T00:22:36.156Z,96160.77
2019-03-12T00:23:39.577Z,96162.30
2019-03-12T00:24:43.005Z,96149.48
2019-03-12T00:25:46.440Z,96158.80
2019-03-12T00:26:49.866Z,96161.08
2019-03-12T00:27:53.313Z,96167.11
2019-03-12T00:28:56.727Z,96165.73
2019-03-12T00:30:00.441Z,96170.93
2019-03-12T00:31:03.977Z,96172.23
2019-03-12T00:32:07.404Z,96174.19
2019-03-12T00:33:10.931Z,96184.81
2019-03-12T00:34:14.348Z,96176.95
2019-03-12T00:35:17.976Z,96188.25
2019-03-12T00:36:21.509Z,96197.61
2019-03-12T00:37:24.925Z,96193.72
2019-03-12T00:38:28.433Z,96198.45
2019-03-12T00:39:31.848Z,96180.01
2019-03-12T00:40:35.340Z,96186.86
2019-03-12T00:41:38.791Z,96185.48
2019-03-12T00:42:42.239Z,96186.95
2019-03-12T00:43:45.686Z,96192.34
2019-03-12T00:44:49.114Z,96180.99
2019-03-12T00:45:52.545Z,96183.45
2019-03-12T00:46:55.991Z,96191.69
2019-03-12T00:47:59.445Z,96191.69
2019-03-12T00:49:02.867Z,96203.96
2019-03-12T00:50:09.128Z,96188.16
2019-03-12T00:51:12.564Z,96193.58
2019-03-12T00:52:15.994Z,96202.20
2019-03-12T00:53:19.443Z,96191.30
2019-03-12T00:54:23.036Z,96188.54
2019-03-12T00:55:26.468Z,96194.73
2019-03-12T00:56:29.979Z,96191.38
2019-03-12T00:57:33.439Z,96180.30
2019-03-12T00:58:36.864Z,96193.90
2019-03-12T00:59:40.275Z,96187.24
2019-03-12T01:00:43.707Z,96189.45
2019-03-12T01:01:47.129Z,96199.37
2019-03-12T01:02:50.630Z,96192.98
2019-03-12T01:03:54.084Z,96188.54
2019-03-12T01:04:57.508Z,96193.90
2019-03-12T01:06:00.932Z,96191.59
2019-03-12T01:07:04.495Z,96196.32
2019-03-12T01:08:08.002Z,96202.80
2019-03-12T01:09:11.492Z,96203.58
2019-03-12T01:10:15.262Z,96213.50
2019-03-12T01:11:19.433Z,96217.77
2019-03-12T01:12:22.847Z,96221.34
2019-03-12T01:13:26.371Z,96214.34
2019-03-12T01:14:29.796Z,96216.09
2019-03-12T01:15:33.226Z,96199.99
2019-03-12T01:16:36.656Z,96228.36
2019-03-12T01:17:40.076Z,96225.63
2019-03-12T01:18:43.520Z,96234.17
2019-03-12T01:19:46.949Z,96230.88
2019-03-12T01:20:50.365Z,96226.39
2019-03-12T01:21:53.853Z,96228.22
2019-03-12T01:22:57.278Z,96235.16
2019-03-12T01:24:00.799Z,96240.34
2019-03-12T01:25:05.155Z,96240.14
2019-03-12T01:26:08.601Z,96237.83
2019-03-12T01:27:12.187Z,96234.11
2019-03-12T01:28:15.630Z,96234.63
2019-03-12T01:29:19.069Z,96241.96
2019-03-12T01:30:22.573Z,96241.12
2019-03-12T01:31:26.004Z,96244.70
2019-03-12T01:32:29.425Z,96239.82
2019-03-12T01:33:32.853Z,96244.03
2019-03-12T01:34:36.299Z,96245.61
2019-03-12T01:35:39.736Z,96246.52
2019-03-12T01:36:43.166Z,96245.47
2019-03-12T01:37:46.656Z,96246.62
2019-03-12T01:38:50.079Z,96252.09
2019-03-12T01:39:53.534Z,96252.34
2019-03-12T01:40:57.045Z,96249.50
2019-03-12T01:42:00.470Z,96256.16
2019-03-12T01:43:03.893Z,96253.25
2019-03-12T01:44:07.318Z,96256.75
2019-03-12T01:45:14.950Z,96255.91
2019-03-12T01:46:18.363Z,96262.39
2019-03-12T01:47:21.783Z,96257.00
2019-03-12T01:48:25.205Z,96259.73
2019-03-12T01:49:28.632Z,96253.70
2019-03-12T01:50:32.147Z,96259.20
2019-03-12T01:51:35.591Z,96265.17
2019-03-12T01:52:39.073Z,96258.58
2019-03-12T01:53:42.518Z,96264.39
2019-03-12T01:54:45.942Z,96260.50
2019-03-12T01:55:49.463Z,96258.44
2019-03-12T01:56:53.018Z,96255.38
2019-03-12T01:57:56.456Z,96201.04
2019-03-12T01:58:59.894Z,96246.45
2019-03-12T02:00:04.166Z,96258.36
2019-03-12T02:01:07.680Z,96264.53
2019-03-12T02:02:11.169Z,96254.02
2019-03-12T02:03:14.645Z,96271.55
2019-03-12T02:04:18.019Z,96255.39
2019-03-12T02:05:21.442Z,96261.10
2019-03-12T02:06:24.972Z,96265.91
2019-03-12T02:07:28.410Z,96259.42
2019-03-12T02:08:31.907Z,96261.80
2019-03-12T02:09:35.397Z,96260.78
2019-03-12T02:10:38.957Z,96264.39
2019-03-12T02:11:42.397Z,96262.54
2019-03-12T02:12:45.844Z,96262.26
2019-03-12T02:13:49.340Z,96257.80
2019-03-12T02:14:52.765Z,96272.84
2019-03-12T02:15:56.276Z,96266.07
2019-03-12T02:16:59.717Z,96274.45
2019-03-12T02:18:03.180Z,96280.34
2019-03-12T02:19:06.602Z,96272.45
2019-03-12T02:20:15.115Z,96266.74
2019-03-12T02:21:18.624Z,96270.17
2019-03-12T02:22:22.056Z,96273.86
2019-03-12T02:23:28.734Z,96275.23
2019-03-12T02:24:30.798Z,96278.34
2019-03-12T02:25:34.162Z,96279.33
2019-03-12T02:26:37.597Z,96274.06
2019-03-12T02:27:41.112Z,96267.05
2019-03-12T02:28:44.603Z,96271.09
2019-03-12T02:29:48.044Z,96278.66
2019-03-12T02:30:51.473Z,96281.72
2019-03-12T02:31:54.913Z,96281.92
2019-03-12T02:32:58.350Z,96288.41
2019-03-12T02:34:01.786Z,96284.70
2019-03-12T02:35:06.022Z,96285.29
2019-03-12T02:36:09.565Z,96278.21
2019-03-12T02:37:13.083Z,96282.23
2019-03-12T02:38:16.527Z,96287.73
2019-03-12T02:39:20.012Z,96289.25
2019-03-12T02:40:23.478Z,96282.55
2019-03-12T02:41:26.911Z,96286.82
2019-03-12T02:42:30.341Z,96286.95
2019-03-12T02:43:33.780Z,96289.30
2019-03-12T02:44:37.207Z,96292.91
2019-03-12T02:45:40.696Z,96296.95
2019-03-12T02:46:44.201Z,96289.30
2019-03-12T02:47:47.695Z,96294.28
2019-03-12T02:48:51.190Z,96298.84
2019-03-12T02:49:54.608Z,96298.00
2019-03-12T02:50:58.036Z,96302.45
2019-03-12T02:52:01.463Z,96301.99
2019-03-12T02:53:04.896Z,96286.33
2019-03-12T02:54:08.350Z,96306.49
2019-03-12T02:55:12.311Z,96301.89
2019-03-12T02:56:15.738Z,96308.30
2019-03-12T02:57:19.168Z,96313.09
2019-03-12T02:58:22.612Z,96323.09
2019-03-12T02:59:26.025Z,96325.40
2019-03-12T03:00:29.544Z,96330.67
2019-03-12T03:01:32.960Z,96324.19
2019-03-12T03:02:36.387Z,96326.72
2019-03-12T03:03:39.813Z,96327.24
2019-03-12T03:04:43.345Z,96325.95
2019-03-12T03:05:48.442Z,96330.80
2019-03-12T03:06:53.477Z,96333.64
2019-03-12T03:08:04.376Z,96336.45
2019-03-12T03:09:07.869Z,96342.26
2019-03-12T03:10:12.226Z,96336.55
2019-03-12T03:11:15.638Z,96336.16
2019-03-12T03:12:19.069Z,96336.22
2019-03-12T03:13:22.559Z,96341.95
2019-03-12T03:14:30.804Z,96347.14
2019-03-12T03:15:42.796Z,96346.15
2019-03-12T03:16:46.219Z,96352.85
2019-03-12T03:17:49.722Z,96353.55
2019-03-12T03:18:53.289Z,96358.75
2019-03-12T03:19:56.711Z,96347.07
2019-03-12T03:21:00.241Z,96346.15
2019-03-12T03:22:03.662Z,96343.47
2019-03-12T03:23:07.204Z,96343.03
2019-03-12T03:24:10.616Z,96346.06
2019-03-12T03:25:15.290Z,96351.53
2019-03-12T03:26:18.852Z,96347.18
2019-03-12T03:27:22.286Z,96345.81
2019-03-12T03:28:25.716Z,96349.12
2019-03-12T03:29:29.136Z,96354.06
2019-03-12T03:30:32.636Z,96351.84
2019-03-12T03:31:36.076Z,96360.91
2019-03-12T03:32:39.523Z,96352.15
2019-03-12T03:33:42.937Z,96355.02
2019-03-12T03:34:46.379Z,96360.45
2019-03-12T03:35:49.813Z,96360.60
2019-03-12T03:36:53.336Z,96356.78
2019-03-12T03:37:56.759Z,96359.77
2019-03-12T03:39:00.207Z,96359.38
2019-03-12T03:40:05.561Z,96362.27
2019-03-12T03:41:09.014Z,96362.34
2019-03-12T03:42:12.445Z,96363.81
2019-03-12T03:43:15.881Z,96361.28
2019-03-12T03:44:19.380Z,96365.86
2019-03-12T03:45:22.883Z,96369.69
2019-03-12T03:46:26.313Z,96370.70
2019-03-12T03:47:29.782Z,96361.38
2019-03-12T03:48:33.261Z,96369.00
2019-03-12T03:49:36.742Z,96367.39
2019-03-12T03:50:40.173Z,96367.27
2019-03-12T03:51:43.602Z,96362.36
2019-03-12T03:52:47.151Z,96367.61
2019-03-12T03:53:50.551Z,96362.21
2019-03-12T03:54:54.066Z,96360.91
2019-03-12T03:55:57.494Z,96372.80
2019-03-12T03:57:00.931Z,96379.38
2019-03-12T03:58:04.520Z,96369.06
2019-03-12T03:59:08.018Z,96366.69
2019-03-12T04:00:14.484Z,96371.88
2019-03-12T04:01:17.979Z,96367.89
2019-03-12T04:02:21.404Z,96365.95
2019-03-12T04:03:24.861Z,96377.89
2019-03-12T04:04:28.291Z,96371.59
2019-03-12T04:05:31.720Z,96375.33
2019-03-12T04:06:35.163Z,96377.70
2019-03-12T04:07:38.652Z,96379.34
2019-03-12T04:08:42.089Z,96380.55
2019-03-12T04:09:45.688Z,96385.15
2019-03-12T04:10:49.114Z,96377.89
2019-03-12T04:11:52.567Z,96379.28
2019-03-12T04:12:56.145Z,96384.72
2019-03-12T04:13:59.615Z,96384.19
2019-03-12T04:15:03.110Z,96385.48
2019-03-12T04:16:06.533Z,96375.80
2019-03-12T04:17:09.945Z,96374.34
2019-03-12T04:18:13.390Z,96384.96
2019-03-12T04:19:16.856Z,96383.05
2019-03-12T04:20:20.374Z,96388.48
2019-03-12T04:21:23.926Z,96385.33
2019-03-12T04:22:27.345Z,96386.84
2019-03-12T04:23:30.795Z,96392.50
2019-03-12T04:24:34.293Z,96394.50
2019-03-12T04:25:37.720Z,96395.22
2019-03-12T04:26:41.229Z,96392.77
2019-03-12T04:27:44.881Z,96384.75
2019-03-12T04:28:48.379Z,96389.09
2019-03-12T04:29:52.045Z,96393.61
2019-03-12T04:30:55.490Z,96393.98
2019-03-12T04:31:58.917Z,96387.22
2019-03-12T04:33:02.347Z,96398.52
2019-03-12T04:34:13.089Z,96395.55
2019-03-12T04:35:22.169Z,96400.73
2019-03-12T04:36:25.592Z,96405.46
2019-03-12T04:37:29.011Z,96400.98
2019-03-12T04:38:32.439Z,96397.22
2019-03-12T04:39:35.866Z,96400.64
2019-03-12T04:40:39.376Z,96402.09
2019-03-12T04:41:42.868Z,96401.81
2019-03-12T04:42:46.293Z,96403.12
2019-03-12T04:43:49.716Z,96403.80
2019-03-12T04:44:53.169Z,96401.33
2019-03-12T04:45:56.610Z,96397.44
2019-03-12T04:47:00.105Z,96405.86
2019-03-12T04:48:03.528Z,96402.28
2019-03-12T04:49:06.963Z,96405.86
2019-03-12T04:50:10.617Z,96410.68
2019-03-12T04:51:14.057Z,96410.06
2019-03-12T04:52:17.560Z,96406.52
2019-03-12T04:53:20.981Z,96409.35
2019-03-12T04:54:24.404Z,96409.47
2019-03-12T04:55:27.903Z,96408.05
2019-03-12T04:56:31.342Z,96410.80
2019-03-12T04:57:34.804Z,96410.16
2019-03-12T04:58:38.583Z,96416.02
2019-03-12T04:59:41.997Z,96409.35
2019-03-12T05:00:45.491Z,96407.75
2019-03-12T05:01:49.030Z,96405.46
2019-03-12T05:02:52.457Z,96406.23
2019-03-12T05:03:55.885Z,96405.92
2019-03-12T05:04:59.309Z,96401.98
2019-03-12T05:06:02.927Z,96401.98
2019-03-12T05:07:06.404Z,96400.52
2019-03-12T05:08:09.852Z,96401.45
2019-03-12T05:09:13.422Z,96405.34
2019-03-12T05:10:17.092Z,96405.09
2019-03-12T05:11:20.589Z,96397.74
2019-03-12T05:12:24.029Z,96401.42
2019-03-12T05:13:27.527Z,96405.00
2019-03-12T05:14:31.134Z,96402.41
2019-03-12T05:15:34.679Z,96407.96
2019-03-12T05:16:38.087Z,96401.63
2019-03-12T05:17:41.663Z,96412.19
2019-03-12T05:18:45.129Z,96412.10
2019-03-12T05:19:48.600Z,96407.47
2019-03-12T05:20:52.030Z,96408.52
2019-03-12T05:21:55.501Z,96412.56
2019-03-12T05:22:58.935Z,96413.70
2019-03-12T05:24:02.362Z,96409.41
2019-03-12T05:25:09.074Z,96418.43
2019-03-12T05:26:12.491Z,96408.77
2019-03-12T05:27:16.005Z,96421.33
2019-03-12T05:28:19.453Z,96420.09
2019-03-12T05:29:22.878Z,96417.50
2019-03-12T05:30:26.303Z,96411.48
2019-03-12T05:31:29.760Z,96416.88
2019-03-12T05:32:33.216Z,96415.12
2019-03-12T05:33:36.665Z,96426.33
2019-03-12T05:34:40.147Z,96415.49
2019-03-12T05:35:43.636Z,96414.72
2019-03-12T05:36:47.058Z,96419.33
2019-03-12T05:37:50.645Z,96413.55
2019-03-12T05:38:54.071Z,96417.59
2019-03-12T05:39:57.489Z,96406.17
2019-03-12T05:41:00.981Z,96414.42
2019-03-12T05:42:04.556Z,96421.17
2019-03-12T05:43:08.018Z,96426.55
2019-03-12T05:44:11.445Z,96426.09
2019-03-12T05:45:16.990Z,96423.71
2019-03-12T05:46:20.404Z,96427.38
2019-03-12T05:47:23.840Z,96433.87
2019-03-12T05:48:27.287Z,96429.73
2019-03-12T05:49:30.739Z,96432.17
2019-03-12T05:50:34.200Z,96427.97
2019-03-12T05:51:37.607Z,96430.72
2019-03-12T05:52:41.103Z,96435.56
2019-03-12T05:53:54.144Z,96437.14
2019-03-12T05:54:57.578Z,96439.64
2019-03-12T05:56:01.076Z,96433.00
2019-03-12T05:57:04.584Z,96440.11
2019-03-12T05:58:08.150Z,96440.51
2019-03-12T05:59:11.615Z,96431.38
2019-03-12T06:00:17.336Z,96436.95
2019-03-12T06:01:20.826Z,96430.91
2019-03-12T06:02:24.329Z,96435.48
2019-03-12T06:03:27.756Z,96438.84
2019-03-12T06:04:31.201Z,96439.86
2019-03-12T06:05:34.653Z,96438.78
2019-03-12T06:06:38.074Z,96433.91
2019-03-12T06:07:41.571Z,96440.66
2019-03-12T06:08:45.074Z,96437.20
2019-03-12T06:09:48.519Z,96430.44
2019-03-12T06:10:51.950Z,96430.07
2019-03-12T06:11:55.393Z,96430.59
2019-03-12T06:12:58.884Z,96433.72
2019-03-12T06:14:02.315Z,96434.80
2019-03-12T06:15:11.035Z,96436.03
2019-03-12T06:16:14.466Z,96433.84
2019-03-12T06:17:17.894Z,96431.92
2019-03-12T06:18:21.388Z,96435.97
2019-03-12T06:19:24.825Z,96433.59
2019-03-12T06:20:28.275Z,96432.70
2019-03-12T06:21:31.705Z,96433.87
2019-03-12T06:22:35.160Z,96428.38
2019-03-12T06:23:38.602Z,96432.72
2019-03-12T06:24:42.021Z,96442.11
2019-03-12T06:25:45.466Z,96432.11
2019-03-12T06:26:48.905Z,96436.66
2019-03-12T06:27:52.340Z,96437.58
2019-03-12T06:28:55.781Z,96439.12
2019-03-12T06:29:59.198Z,96432.23
2019-03-12T06:31:04.361Z,96437.11
2019-03-12T06:32:21.180Z,96441.19
2019-03-12T06:33:28.776Z,96440.82
2019-03-12T06:34:33.840Z,96439.67
2019-03-12T06:35:38.902Z,96436.24
2019-03-12T06:36:46.601Z,96437.45
2019-03-12T06:37:54.399Z,96434.86
2019-03-12T06:39:15.145Z,96432.51
2019-03-12T06:40:26.135Z,96436.92
2019-03-12T06:41:47.136Z,96432.51
2019-03-12T06:43:00.628Z,96431.40
2019-03-12T06:44:08.532Z,96436.06
2019-03-12T06:45:13.744Z,96432.27
2019-03-12T06:46:27.401Z,96434.02
2019-03-12T06:47:35.002Z,96427.41
2019-03-12T06:48:45.828Z,96434.58
2019-03-12T06:49:50.971Z,96437.88
2019-03-12T06:50:58.811Z,96432.77
2019-03-12T06:52:06.935Z,96433.55
2019-03-12T06:53:14.826Z,96433.23
2019-03-12T06:54:28.585Z,96434.01
2019-03-12T06:55:33.668Z,96433.70
2019-03-12T06:56:53.599Z,96438.45
2019-03-12T06:58:20.956Z,96439.30
2019-03-12T06:59:26.041Z,96442.39
2019-03-12T07:00:31.099Z,96439.86
2019-03-12T07:01:41.892Z,96439.55
2019-03-12T07:02:46.956Z,96435.66
2019-03-12T07:03:55.243Z,96433.83
2019-03-12T07:05:00.405Z,96436.50
2019-03-12T07:06:11.610Z,96434.30
2019-03-12T07:07:22.706Z,96436.98
2019-03-12T07:08:27.773Z,96426.82
2019-03-12T07:09:38.638Z,96436.90
2019-03-12T07:10:58.882Z,96430.73
2019-03-12T07:12:03.962Z,96432.16
2019-03-12T07:13:24.687Z,96425.28
2019-03-12T07:14:41.594Z,96433.00
2019-03-12T07:15:49.117Z,96428.58
2019-03-12T07:17:08.944Z,96437.29
2019-03-12T07:18:16.885Z,96435.36
2019-03-12T07:19:37.777Z,96434.37
2019-03-12T07:20:54.673Z,96432.41
2019-03-12T07:22:02.460Z,96433.92
2019-03-12T07:23:22.732Z,96435.28
2019-03-12T07:24:27.790Z,96434.05
2019-03-12T07:25:38.927Z,96433.07
2019-03-12T07:26:43.989Z,96443.14
2019-03-12T07:28:05.396Z,96436.90
2019-03-12T07:29:13.426Z,96437.44
2019-03-12T07:30:18.549Z,96440.28
2019-03-12T07:31:38.509Z,96448.84
2019-03-12T07:32:49.069Z,96442.25
2019-03-12T07:33:56.783Z,96450.30
2019-03-12T07:35:04.518Z,96438.29
2019-03-12T07:36:15.671Z,96444.72
2019-03-12T07:37:26.421Z,96437.38
2019-03-12T07:38:40.037Z,96442.88
2019-03-12T07:40:00.315Z,96442.18
2019-03-12T07:41:29.987Z,96440.35
2019-03-12T07:42:21.320Z,96439.58
2019-03-12T07:43:26.390Z,96436.70
2019-03-12T07:44:37.495Z,96432.17
2019-03-12T07:45:45.293Z,96433.09
2019-03-12T07:46:50.621Z,96433.61
2019-03-12T07:48:11.430Z,96435.30
2019-03-12T07:49:16.576Z,96425.99
2019-03-12T07:50:27.345Z,96426.20
2019-03-12T07:51:48.440Z,96426.20
2019-03-12T07:53:09.259Z,96414.31
2019-03-12T07:54:23.275Z,96420.49
2019-03-12T07:55:31.048Z,96419.51
2019-03-12T07:56:36.167Z,96419.27
2019-03-12T07:57:41.260Z,96417.89
2019-03-12T07:58:52.052Z,96415.37
2019-03-12T08:00:12.769Z,96424.63
2019-03-12T08:01:17.847Z,96418.35
2019-03-12T08:02:25.713Z,96409.79
2019-03-12T08:03:45.867Z,96410.73
2019-03-12T08:04:53.611Z,96409.79
2019-03-12T08:06:07.528Z,96416.14
2019-03-12T08:07:15.538Z,96418.98
2019-03-12T08:08:23.440Z,96409.11
2019-03-12T08:09:46.593Z,96414.77
2019-03-12T08:11:03.276Z,96419.12
2019-03-12T08:12:16.878Z,96416.77
2019-03-12T08:13:30.952Z,96402.62
2019-03-12T08:14:44.779Z,96403.00
2019-03-12T08:16:04.723Z,96407.67
2019-03-12T08:17:09.792Z,96397.28
2019-03-12T08:18:17.543Z,96393.98
2019-03-12T08:19:38.753Z,96396.97
2019-03-12T08:20:55.428Z,96396.36
2019-03-12T08:22:03.229Z,96398.64
2019-03-12T08:23:08.409Z,96393.45
2019-03-12T08:24:28.107Z,96389.55
2019-03-12T08:25:38.921Z,96394.81
2019-03-12T08:26:52.665Z,96390.59
2019-03-12T08:28:00.534Z,96382.80
2019-03-12T08:29:11.550Z,96383.05
2019-03-12T08:30:19.406Z,96389.60
2019-03-12T08:31:27.445Z,96376.45
2019-03-12T08:32:48.352Z,96372.48
2019-03-12T08:33:56.156Z,96373.33
2019-03-12T08:35:01.242Z,96367.73
2019-03-12T08:36:06.382Z,96370.07
2019-03-12T08:37:23.265Z,96369.70
2019-03-12T08:38:30.959Z,96363.12
2019-03-12T08:39:41.485Z,96360.06
2019-03-12T08:41:02.264Z,96358.93
2019-03-12T08:42:13.297Z,96345.91
2019-03-12T08:43:21.337Z,96353.23
2019-03-12T08:44:26.607Z,96348.16
2019-03-12T08:45:31.657Z,96347.95
2019-03-12T08:46:36.800Z,96346.24
2019-03-12T08:47:44.635Z,96346.50
2019-03-12T08:48:49.717Z,96345.27
2019-03-12T08:50:10.746Z,96346.17
2019-03-12T08:51:15.946Z,96342.39
2019-03-12T08:52:29.678Z,96341.89
2019-03-12T08:53:34.771Z,96352.55
2019-03-12T08:54:53.840Z,96356.90
2019-03-12T08:55:58.175Z,96349.58
2019-03-12T08:57:15.031Z,96342.23
2019-03-12T08:58:26.072Z,96341.91
2019-03-12T08:59:40.036Z,96335.94
2019-03-12T09:01:03.097Z,96341.01
2019-03-12T09:02:23.964Z,96339.22
2019-03-12T09:03:37.780Z,96332.84
2019-03-12T09:04:45.424Z,96329.63
2019-03-12T09:05:56.221Z,96336.45
2019-03-12T09:07:13.095Z,96337.47
2019-03-12T09:08:18.241Z,96340.31
2019-03-12T09:09:26.076Z,96333.70
2019-03-12T09:10:31.211Z,96325.52
2019-03-12T09:11:41.977Z,96328.68
2019-03-12T09:12:47.031Z,96321.25
2019-03-12T09:13:57.705Z,96322.67
2019-03-12T09:15:14.581Z,96323.44
2019-03-12T09:16:37.664Z,96314.48
2019-03-12T09:18:00.711Z,96313.17
2019-03-12T09:19:14.593Z,96321.92
2019-03-12T09:20:22.542Z,96321.72
2019-03-12T09:21:30.097Z,96318.51
2019-03-12T09:22:51.316Z,96316.20
2019-03-12T09:23:56.471Z,96312.14
2019-03-12T09:25:11.547Z,96310.64
2019-03-12T09:26:17.136Z,96302.04
2019-03-12T09:27:37.981Z,96307.16
2019-03-12T09:28:59.364Z,96305.38
2019-03-12T09:30:10.240Z,96305.00
2019-03-12T09:31:15.300Z,96308.58
2019-03-12T09:32:26.353Z,96311.56
2019-03-12T09:33:49.154Z,96298.39
2019-03-12T09:35:06.189Z,96302.75
2019-03-12T09:36:11.279Z,96306.89
2019-03-12T09:37:19.159Z,96296.97
2019-03-12T09:38:24.227Z,96303.77
2019-03-12T09:39:45.515Z,96297.27
2019-03-12T09:40:50.658Z,96291.23
2019-03-12T09:42:01.599Z,96287.09
2019-03-12T09:43:09.421Z,96294.32
2019-03-12T09:44:14.564Z,96283.94
2019-03-12T09:45:28.733Z,96288.87
2019-03-12T09:46:42.404Z,96286.92
2019-03-12T09:47:50.349Z,96278.30
2019-03-12T09:48:58.257Z,96284.33
2019-03-12T09:50:19.545Z,96280.59
2019-03-12T09:51:27.610Z,96271.51
2019-03-12T09:52:50.955Z,96267.14
2019-03-12T09:53:56.073Z,96263.67
2019-03-12T09:55:07.139Z,96260.42
2019-03-12T09:56:28.266Z,96265.97
2019-03-12T09:57:42.509Z,96253.35
2019-03-12T09:58:47.637Z,96253.86
2019-03-12T10:00:16.078Z,96257.34
2019-03-12T10:01:25.957Z,96252.33
2019-03-12T10:02:31.031Z,96257.23
2019-03-12T10:03:39.066Z,96254.81
2019-03-12T10:04:44.168Z,96253.95
2019-03-12T10:05:55.376Z,96252.33
2019-03-12T10:07:09.419Z,96248.14
2019-03-12T10:08:20.055Z,96247.87
2019-03-12T10:09:30.840Z,96247.52
2019-03-12T10:10:44.465Z,96238.80
2019-03-12T10:11:55.572Z,96244.77
2019-03-12T10:13:00.780Z,96254.91
2019-03-12T10:14:22.186Z,96239.41
2019-03-12T10:15:33.380Z,96243.33
2019-03-12T10:16:46.906Z,96243.14
2019-03-12T10:18:06.896Z,96236.47
2019-03-12T10:19:14.938Z,96234.64
2019-03-12T10:20:28.964Z,96221.00
2019-03-12T10:21:45.776Z,96225.49
2019-03-12T10:22:50.913Z,96216.05
2019-03-12T10:23:55.992Z,96229.52
2019-03-12T10:25:16.928Z,96220.84
2019-03-12T10:26:30.782Z,96207.91
2019-03-12T10:27:47.595Z,96211.42
2019-03-12T10:28:52.742Z,96213.51
2019-03-12T10:30:09.568Z,96203.09
2019-03-12T10:31:20.607Z,96205.78
2019-03-12T10:32:28.721Z,96202.94
2019-03-12T10:33:36.769Z,96206.84
2019-03-12T10:34:50.769Z,96197.84
2019-03-12T10:36:13.611Z,96195.47
2019-03-12T10:37:24.527Z,96198.22
2019-03-12T10:39:14.684Z,96197.16
2019-03-12T10:40:19.906Z,96186.50
2019-03-12T10:41:40.893Z,96191.61
2019-03-12T10:42:51.760Z,96177.38
2019-03-12T10:43:55.745Z,96183.55
2019-03-12T10:45:06.922Z,96177.48
2019-03-12T10:46:12.062Z,96174.34
2019-03-12T10:47:17.155Z,96181.08
2019-03-12T10:48:20.595Z,96176.63
2019-03-12T10:49:36.702Z,96182.49
2019-03-12T10:50:29.581Z,96186.41
2019-03-12T10:51:33.093Z,96173.47
2019-03-12T10:52:36.600Z,96174.77
2019-03-12T10:53:40.091Z,96177.27
2019-03-12T10:54:43.586Z,96181.39
2019-03-12T10:55:47.094Z,96170.66
2019-03-12T10:56:50.522Z,96177.39
2019-03-12T10:57:54.013Z,96164.03
2019-03-12T10:58:57.504Z,96164.90
2019-03-12T11:00:00.992Z,96164.03
2019-03-12T11:01:04.532Z,96161.86
2019-03-12T11:02:08.406Z,96164.14
2019-03-12T11:03:11.868Z,96153.47
2019-03-12T11:04:15.294Z,96157.08
2019-03-12T11:05:19.349Z,96151.17
2019-03-12T11:06:23.137Z,96155.28
2019-03-12T11:07:26.700Z,96144.45
2019-03-12T11:08:30.267Z,96143.14
2019-03-12T11:09:33.711Z,96142.72
2019-03-12T11:10:37.196Z,96137.94
2019-03-12T11:11:40.641Z,96127.93
2019-03-12T11:12:44.155Z,96120.98
2019-03-12T11:13:47.651Z,96139.64
2019-03-12T11:14:51.068Z,96124.86
2019-03-12T11:15:54.493Z,96133.66
2019-03-12T11:16:57.936Z,96123.22
2019-03-12T11:18:01.458Z,96125.52
2019-03-12T11:19:04.874Z,96119.09
2019-03-12T11:20:11.345Z,96107.45
2019-03-12T11:21:14.779Z,96108.99
2019-03-12T11:22:18.214Z,96117.22
2019-03-12T11:23:21.806Z,96105.22
2019-03-12T11:24:25.230Z,96105.56
2019-03-12T11:25:28.647Z,96108.29
2019-03-12T11:26:32.143Z,96104.03
2019-03-12T11:27:35.590Z,96106.04
2019-03-12T11:28:39.168Z,96094.26
2019-03-12T11:29:42.662Z,96098.02
2019-03-12T11:30:46.104Z,96091.44
2019-03-12T11:31:49.537Z,96088.39
2019-03-12T11:32:52.991Z,96085.92
2019-03-12T11:33:56.447Z,96079.85
2019-03-12T11:34:59.871Z,96072.78
2019-03-12T11:36:03.366Z,96075.27
2019-03-12T11:37:06.961Z,96071.87
2019-03-12T11:38:10.361Z,96066.25
2019-03-12T11:39:13.949Z,96065.30
2019-03-12T11:40:25.376Z,96071.03
2019-03-12T11:41:29.289Z,96057.79
2019-03-12T11:42:32.707Z,96070.69
2019-03-12T11:43:36.207Z,96061.76
2019-03-12T11:44:39.665Z,96057.52
2019-03-12T11:45:43.137Z,96050.11
2019-03-12T11:46:46.637Z,96047.92
2019-03-12T11:47:50.125Z,96038.41
2019-03-12T11:48:53.635Z,96032.02
2019-03-12T11:49:57.130Z,96034.72
2019-03-12T11:51:00.695Z,96017.45
2019-03-12T11:52:04.209Z,96042.15
2019-03-12T11:53:07.808Z,96040.48
2019-03-12T11:54:11.316Z,96032.33
2019-03-12T11:55:15.996Z,96016.30
2019-03-12T11:56:19.625Z,96020.89
2019-03-12T11:57:23.120Z,96016.08
2019-03-12T11:58:26.560Z,96016.08
2019-03-12T11:59:30.074Z,96019.97
2019-03-12T12:00:35.236Z,96006.02
2019-03-12T12:01:38.731Z,96005.34
2019-03-12T12:02:42.225Z,96004.12
2019-03-12T12:03:45.715Z,96006.38
2019-03-12T12:04:49.309Z,95999.11
2019-03-12T12:05:52.734Z,95992.28
2019-03-12T12:06:56.221Z,95981.25
2019-03-12T12:07:59.680Z,95980.41
2019-03-12T12:09:03.286Z,95974.97
2019-03-12T12:10:15.254Z,95970.80
2019-03-12T12:11:18.774Z,95970.38
2019-03-12T12:12:22.196Z,95971.32
2019-03-12T12:13:25.620Z,95969.66
2019-03-12T12:14:29.106Z,95964.30
2019-03-12T12:15:32.765Z,95959.64
2019-03-12T12:16:36.268Z,95964.72
2019-03-12T12:17:40.002Z,95950.95
2019-03-12T12:18:43.441Z,95951.42
2019-03-12T12:19:46.867Z,95951.92
2019-03-12T12:20:50.396Z,95952.20
2019-03-12T12:21:53.826Z,95943.55
2019-03-12T12:22:57.399Z,95939.37
2019-03-12T12:24:00.825Z,95938.08
2019-03-12T12:25:06.641Z,95936.78
2019-03-12T12:26:10.222Z,95941.38
2019-03-12T12:27:13.691Z,95940.88
2019-03-12T12:28:17.233Z,95935.09
2019-03-12T12:29:20.663Z,95928.26
2019-03-12T12:30:24.915Z,95930.70
2019-03-12T12:31:28.357Z,95932.20
2019-03-12T12:32:31.806Z,95922.59
2019-03-12T12:33:35.311Z,95922.80
2019-03-12T12:34:38.739Z,95913.24
2019-03-12T12:35:42.159Z,95911.16
2019-03-12T12:36:45.686Z,95911.34
2019-03-12T12:37:49.112Z,95904.39
2019-03-12T12:38:52.684Z,95901.28
2019-03-12T12:39:56.208Z,95905.70
2019-03-12T12:40:59.839Z,95900.58
2019-03-12T12:42:03.353Z,95906.27
2019-03-12T12:43:06.848Z,95896.88
2019-03-12T12:44:10.281Z,95899.55
2019-03-12T12:45:16.758Z,95892.04
2019-03-12T12:46:20.272Z,95888.83
2019-03-12T12:47:23.736Z,95887.97
2019-03-12T12:48:27.169Z,95883.09
2019-03-12T12:49:30.669Z,95874.12
2019-03-12T12:50:34.239Z,95875.41
2019-03-12T12:51:37.738Z,95871.61
2019-03-12T12:52:41.193Z,95871.83
2019-03-12T12:53:44.692Z,95865.47
2019-03-12T12:54:48.148Z,95869.98
2019-03-12T12:55:51.645Z,95876.12
2019-03-12T12:56:55.087Z,95863.73